Lawndale, California
Current Conditions -  °F | °C
As of 7:53 AM on Friday 31 Oct 2014 (Local Time) from KHHR Reporting Station
Overcast Overcast  
Wind Chill: 64°   Ceiling: 3800
Heat Index: 64°   Visibility: 9mi
Dew Point: 58°   Wind: 5mph
Humidity: 80%   Direction: 70°ENE
Pressure: 29.96"   Gusts: NA
Location:  33.9°N, 118.35°W
Report Text: KHHR 311453Z 07004KT 9SM OVC038 18/14 A2996 RMK AO2 SLP146 T01780144 53006
Loading
Personal Weather Stations






























Interactive Weather Map
Tropical Storm Tracking
New forecast layout! Learn more

10-Day Weather Forecast

Advertisements
Track Severe Weather on mobile